Querétaro Intercontinental Airport
MMQT : now visible

Airfield :











YOU CAN JOIN US ON...

 
LOGIN :

Register | Disclaimer

   EN    FR    IT 

 









Legend :    VFR   Marginal VFR   IFR   Intensive IFR   Very Intensive IFR
Visi :
Ceiling :
>= 8 km
>= 3000ft
5 to 8 km
1000 to 3000 ft
1500m to 5 km
500 to 1000 ft
800 to 1500m
200 to 500 ft
< 800m
< 200 ft
Symbols :   Thunderstorms  Fog  Heavy snow  Heavy precipitations  Wind > 20 kt






- Airport Elevation : 6296 ft
- IATA code : QRO


MMQT - Querétaro Intercontinental

CURRENT METAR :
  • 291041Z 16004KT 8SM FEW020 05/04 A3025 RMK 8/500

EXPIRED METARs :
  • 290940Z 10004KT 7SM SKC 07/M01 A3024
  • 290841Z 00000KT 8SM SCT080 06/M02 A3025 RMK 8/030

TAF TAF MMQT
Valid from the 29 at 06:00 until the 30 at 06:00 UTC


290512Z 2906/3006 08004KT P6SM SCT080
FM291800 09010KT P6SM SCT090 BKN220
BECMG 3003/3005 00000KT



MET'MAP, your aeronautical weather chart ! - Copyright ORBIFLY December 2007 - Disclaimer

ORBIFLY MET'MAP TEAM :

Programming & Development : Alexandra Zaïnal
Concept & original design : Baudouin d'Aumeries
Assistance for programming : Marc-Olivier Méhu
Technical & hardware support : Manuel Goepfert

Contact : metmap@orbifly.com




SOURCES & CREDITS :

   NOAA       Earth
Advisory